Time;durP1;ratioP1;P1;durP2;ratioP2;P2;SDS_P1;SDS_P2;PMS_P1;PMS_P2;Temp;Humidity;BMP_temperature;BMP_pressure;BME280_temperature;BME280_humidity;BME280_pressure;Samples;Min_cycle;Max_cycle;Signal;HPM_P1;HPM_P2
2023/02/25 00:02:13;;;;;;;9.33;2.80;;;5.00;99.90;;;;;;5073062;28;20460;-74
2023/02/25 00:04:42;;;;;;;7.30;2.00;;;5.00;99.90;;;;;;5073089;28;20463;-74
2023/02/25 00:07:10;;;;;;;8.90;2.10;;;5.00;99.90;;;;;;5076549;28;20433;-74
2023/02/25 00:09:40;;;;;;;7.27;2.40;;;5.00;99.90;;;;;;5077207;28;20803;-74
2023/02/25 00:12:09;;;;;;;10.87;2.87;;;4.90;99.90;;;;;;5077413;28;20793;-74
2023/02/25 00:14:37;;;;;;;9.73;3.00;;;4.90;99.90;;;;;;5059134;28;20449;-74
2023/02/25 00:17:05;;;;;;;10.37;2.57;;;4.90;99.90;;;;;;5076991;28;20436;-74
2023/02/25 00:19:33;;;;;;;13.10;2.93;;;4.90;99.90;;;;;;5077084;28;20880;-74
2023/02/25 00:22:01;;;;;;;8.20;2.70;;;4.90;99.90;;;;;;5058861;28;20468;-74
2023/02/25 00:24:29;;;;;;;13.63;2.50;;;4.90;99.90;;;;;;5076737;28;20461;-74
2023/02/25 00:26:59;;;;;;;7.40;2.37;;;4.80;99.90;;;;;;5058837;28;20453;-74
2023/02/25 00:29:27;;;;;;;8.27;2.83;;;4.80;99.90;;;;;;5076711;28;20783;-74
2023/02/25 00:31:55;;;;;;;8.80;2.30;;;4.80;99.90;;;;;;5058701;28;20476;-74
2023/02/25 00:34:24;;;;;;;7.63;2.50;;;4.70;99.90;;;;;;5058657;28;20452;-74
2023/02/25 00:36:53;;;;;;;10.07;2.57;;;4.70;99.90;;;;;;5076902;28;20447;-73
2023/02/25 00:39:22;;;;;;;7.43;2.13;;;4.70;99.90;;;;;;5058494;28;20475;-74
2023/02/25 00:41:50;;;;;;;8.60;2.47;;;4.70;99.90;;;;;;5058472;28;20473;-74
2023/02/25 00:44:20;;;;;;;10.47;2.40;;;4.70;99.90;;;;;;5058510;28;20455;-74
2023/02/25 00:46:48;;;;;;;9.60;2.40;;;4.70;99.90;;;;;;5058454;28;20467;-74
2023/02/25 00:49:17;;;;;;;6.43;2.50;;;4.60;99.90;;;;;;5058382;28;20454;-74
2023/02/25 00:51:58;;;;;;;10.80;3.50;;;4.60;99.90;;;;;;5058307;28;20518;-74
2023/02/25 00:54:27;;;;;;;10.33;2.50;;;4.60;99.90;;;;;;5058328;28;20940;-74
2023/02/25 00:56:56;;;;;;;7.53;2.17;;;4.60;99.90;;;;;;5058365;28;20441;-74
2023/02/25 00:59:25;;;;;;;9.13;4.00;;;4.60;99.90;;;;;;5076121;28;20868;-74
2023/02/25 01:01:53;;;;;;;11.27;3.00;;;4.60;99.90;;;;;;5076025;28;20460;-74
2023/02/25 01:04:22;;;;;;;10.77;2.37;;;4.60;99.90;;;;;;5058109;28;20442;-74
2023/02/25 01:06:50;;;;;;;13.50;2.83;;;4.60;99.90;;;;;;5076120;28;20437;-74
2023/02/25 01:09:19;;;;;;;9.70;2.70;;;4.60;99.90;;;;;;5058103;28;20437;-74
2023/02/25 01:11:47;;;;;;;14.30;3.60;;;4.60;99.90;;;;;;5075913;28;20461;-74
2023/02/25 01:14:18;;;;;;;9.67;2.40;;;4.60;99.90;;;;;;5057918;28;20440;-74
2023/02/25 01:16:50;;;;;;;7.70;2.60;;;4.60;99.90;;;;;;5076311;28;20449;-74
2023/02/25 01:19:21;;;;;;;8.77;2.77;;;4.60;99.90;;;;;;5057895;28;20438;-74
2023/02/25 01:21:51;;;;;;;7.37;2.60;;;4.60;99.90;;;;;;5057770;28;20487;-74
2023/02/25 01:24:22;;;;;;;10.77;2.60;;;4.60;99.90;;;;;;5075561;28;20822;-74
2023/02/25 01:26:52;;;;;;;9.87;2.40;;;4.60;99.90;;;;;;5075645;28;20433;-74
2023/02/25 01:29:22;;;;;;;9.47;2.33;;;4.50;99.90;;;;;;5076032;28;20521;-74
2023/02/25 01:31:54;;;;;;;12.83;3.10;;;4.50;99.90;;;;;;5057652;28;20474;-74
2023/02/25 01:34:23;;;;;;;11.27;3.00;;;4.50;99.90;;;;;;5057623;28;20495;-74
2023/02/25 01:36:52;;;;;;;7.77;2.50;;;4.50;99.90;;;;;;5057647;28;20472;-74
2023/02/25 01:39:21;;;;;;;11.83;2.70;;;4.50;99.90;;;;;;5075759;28;20440;-74
2023/02/25 01:41:52;;;;;;;11.97;2.93;;;4.50;99.90;;;;;;5075570;28;20852;-74
2023/02/25 01:44:22;;;;;;;13.27;3.20;;;4.50;99.90;;;;;;5057452;28;20903;-74
2023/02/25 01:46:54;;;;;;;8.57;2.90;;;4.50;99.90;;;;;;5057487;28;20441;-74
2023/02/25 01:49:27;;;;;;;13.67;2.93;;;4.50;99.90;;;;;;5057403;28;20441;-74
2023/02/25 01:52:01;;;;;;;8.77;2.60;;;4.50;99.90;;;;;;5057243;28;20837;-74
2023/02/25 01:54:31;;;;;;;6.63;2.43;;;4.50;99.90;;;;;;5057351;28;20429;-74
2023/02/25 01:56:59;;;;;;;11.90;4.03;;;4.50;99.90;;;;;;5057161;28;20537;-74
2023/02/25 01:59:29;;;;;;;11.93;2.67;;;4.50;99.90;;;;;;5057114;28;20473;-74
2023/02/25 02:01:59;;;;;;;10.83;2.73;;;4.50;99.90;;;;;;5057172;28;20500;-74
2023/02/25 02:04:28;;;;;;;10.40;2.73;;;4.50;99.90;;;;;;5057115;28;20538;-74
2023/02/25 02:06:57;;;;;;;8.70;2.90;;;4.50;99.90;;;;;;5057002;28;20441;-74
2023/02/25 02:09:28;;;;;;;14.67;3.43;;;4.50;99.90;;;;;;5057032;28;20447;-74
2023/02/25 02:11:57;;;;;;;10.83;2.93;;;4.50;99.90;;;;;;5056877;28;20466;-73
2023/02/25 02:14:28;;;;;;;9.17;2.90;;;4.50;99.90;;;;;;5074809;28;20429;-74
2023/02/25 02:17:13;;;;;;;10.23;2.33;;;4.50;99.90;;;;;;5075098;28;20432;-74
2023/02/25 02:19:57;;;;;;;7.47;2.83;;;4.50;99.90;;;;;;5074850;28;20417;-74
2023/02/25 02:22:34;;;;;;;12.50;2.90;;;4.50;99.90;;;;;;5056675;28;20476;-73
2023/02/25 02:25:31;;;;;;;10.47;3.13;;;4.50;99.90;;;;;;5059507;28;20952;-74
2023/02/25 02:28:27;;;;;;;9.77;3.00;;;4.50;99.90;;;;;;5080111;28;20442;-74
2023/02/25 02:31:46;;;;;;;11.07;3.43;;;4.40;99.90;;;;;;5079347;28;20422;-74
2023/02/25 02:34:31;;;;;;;9.73;3.37;;;4.50;99.90;;;;;;4976251;28;20443;-74
2023/02/25 02:37:09;;;;;;;7.47;2.10;;;4.50;99.90;;;;;;4999254;28;20553;-74
2023/02/25 02:39:49;;;;;;;12.03;2.90;;;4.50;99.90;;;;;;5061166;28;20452;-74
2023/02/25 02:42:30;;;;;;;7.13;2.50;;;4.50;99.90;;;;;;5062248;28;20510;-74
2023/02/25 02:45:04;;;;;;;11.90;2.90;;;4.50;99.90;;;;;;5062525;28;20469;-74
2023/02/25 02:47:36;;;;;;;15.27;3.63;;;4.50;99.90;;;;;;5062167;28;20442;-74
2023/02/25 02:50:10;;;;;;;7.93;2.50;;;4.50;99.90;;;;;;5061637;28;20446;-74
2023/02/25 02:52:43;;;;;;;8.53;2.70;;;4.50;99.90;;;;;;5061394;28;20490;-74
2023/02/25 02:55:21;;;;;;;10.93;2.77;;;4.50;99.90;;;;;;5078995;28;20422;-74
2023/02/25 02:57:55;;;;;;;8.50;2.30;;;4.50;99.90;;;;;;5059062;28;20457;-74
2023/02/25 03:00:27;;;;;;;8.10;2.70;;;4.50;99.90;;;;;;5076479;28;20424;-74
2023/02/25 03:03:00;;;;;;;8.47;3.23;;;4.50;99.90;;;;;;5076231;28;20453;-74
2023/02/25 03:05:33;;;;;;;11.53;2.70;;;4.50;99.90;;;;;;5058112;28;20536;-74
2023/02/25 03:08:08;;;;;;;8.40;3.30;;;4.50;99.90;;;;;;5058802;28;20449;-74
2023/02/25 03:10:36;;;;;;;8.17;2.27;;;4.50;99.90;;;;;;5058087;28;20437;-74
2023/02/25 03:13:05;;;;;;;8.30;2.53;;;4.50;99.90;;;;;;5056911;28;20465;-74
2023/02/25 03:15:35;;;;;;;9.27;2.60;;;4.50;99.90;;;;;;5056509;28;21041;-74
2023/02/25 03:18:07;;;;;;;6.93;2.00;;;4.50;99.90;;;;;;5056685;28;20441;-74
2023/02/25 03:20:41;;;;;;;13.63;2.67;;;4.50;99.90;;;;;;5057085;28;20446;-74
2023/02/25 03:23:15;;;;;;;7.60;1.90;;;4.50;99.90;;;;;;5075189;28;20868;-74
2023/02/25 03:25:47;;;;;;;8.73;2.30;;;4.50;99.90;;;;;;5073714;28;20425;-74
2023/02/25 03:28:25;;;;;;;4.50;1.77;;;4.50;99.90;;;;;;5055570;28;20452;-74
2023/02/25 03:31:01;;;;;;;6.87;1.80;;;4.50;99.90;;;;;;5055434;28;20447;-74
2023/02/25 03:33:36;;;;;;;5.80;2.00;;;4.60;99.90;;;;;;5073415;28;20421;-74
2023/02/25 03:36:12;;;;;;;4.90;1.60;;;4.60;99.90;;;;;;5055440;28;20444;-74
2023/02/25 03:38:50;;;;;;;4.97;1.90;;;4.60;99.90;;;;;;5055400;28;20811;-74
2023/02/25 03:41:20;;;;;;;6.17;2.10;;;4.60;99.90;;;;;;5054487;28;20555;-74
2023/02/25 03:43:52;;;;;;;5.67;1.80;;;4.60;99.90;;;;;;5055567;28;20443;-74
2023/02/25 03:46:22;;;;;;;7.20;2.23;;;4.60;99.90;;;;;;5055441;28;20445;-74
2023/02/25 03:48:54;;;;;;;6.70;2.00;;;4.60;99.90;;;;;;5055293;28;20469;-74
2023/02/25 03:51:29;;;;;;;7.40;2.63;;;4.60;99.90;;;;;;5055451;28;20962;-74
2023/02/25 03:53:57;;;;;;;7.30;1.93;;;4.60;99.90;;;;;;5073510;28;20417;-74
2023/02/25 03:56:41;;;;;;;6.40;2.20;;;4.60;99.90;;;;;;5055281;28;20451;-74
2023/02/25 03:59:09;;;;;;;6.13;1.97;;;4.60;99.90;;;;;;5055169;28;20447;-75
2023/02/25 04:01:39;;;;;;;11.00;2.43;;;4.60;99.90;;;;;;5054994;28;20476;-75
2023/02/25 04:04:07;;;;;;;6.07;1.57;;;4.60;99.90;;;;;;5055169;28;20449;-74
2023/02/25 04:06:37;;;;;;;6.30;1.93;;;4.50;99.90;;;;;;5055345;28;20455;-74
2023/02/25 04:09:05;;;;;;;4.90;1.60;;;4.60;99.90;;;;;;5055002;28;20446;-74
2023/02/25 04:11:34;;;;;;;6.30;2.23;;;4.50;99.90;;;;;;5054991;28;20469;-75
2023/02/25 04:14:03;;;;;;;6.03;2.10;;;4.50;99.90;;;;;;5055030;28;21005;-74
2023/02/25 04:16:32;;;;;;;5.83;2.13;;;4.50;99.90;;;;;;5055194;28;20465;-74
2023/02/25 04:19:02;;;;;;;8.03;2.70;;;4.50;99.90;;;;;;5055216;28;20468;-74
2023/02/25 04:21:33;;;;;;;9.20;2.40;;;4.50;99.90;;;;;;5054837;28;20504;-74
2023/02/25 04:24:05;;;;;;;7.10;2.43;;;4.50;99.90;;;;;;5054885;28;21020;-74
2023/02/25 04:26:34;;;;;;;9.00;2.50;;;4.50;99.90;;;;;;5054998;28;20992;-74
2023/02/25 04:29:03;;;;;;;8.27;2.47;;;4.50;99.90;;;;;;5054930;28;20958;-74
2023/02/25 04:31:31;;;;;;;8.57;2.53;;;4.50;99.90;;;;;;5054816;28;20978;-74
2023/02/25 04:33:59;;;;;;;5.00;1.80;;;4.40;99.90;;;;;;5054879;28;20437;-74
2023/02/25 04:36:30;;;;;;;8.20;2.67;;;4.40;99.90;;;;;;5054867;28;20452;-74
2023/02/25 04:39:02;;;;;;;7.17;2.20;;;4.40;99.90;;;;;;5073060;28;20899;-74
2023/02/25 04:41:34;;;;;;;7.10;2.20;;;4.40;99.90;;;;;;5073255;28;20845;-74
2023/02/25 04:44:03;;;;;;;6.67;1.90;;;4.40;99.90;;;;;;5072810;28;20425;-74
2023/02/25 04:46:32;;;;;;;6.00;1.77;;;4.40;99.90;;;;;;5054764;28;20433;-74
2023/02/25 04:49:01;;;;;;;7.37;2.10;;;4.30;99.90;;;;;;5072711;28;20494;-74
2023/02/25 04:51:29;;;;;;;6.10;2.20;;;4.30;99.90;;;;;;5072918;28;20464;-74
2023/02/25 04:53:57;;;;;;;8.00;2.17;;;4.30;99.90;;;;;;5058389;28;20448;-74
2023/02/25 04:56:26;;;;;;;8.17;2.00;;;4.20;99.90;;;;;;5058286;28;20460;-75
2023/02/25 04:58:57;;;;;;;5.10;1.60;;;4.20;99.90;;;;;;5058301;28;20452;-75
2023/02/25 05:01:25;;;;;;;5.10;1.43;;;4.20;99.90;;;;;;5058244;28;20917;-75
2023/02/25 05:03:57;;;;;;;6.77;2.47;;;4.10;99.90;;;;;;5076117;28;20456;-74
2023/02/25 05:06:25;;;;;;;6.07;1.63;;;4.10;99.90;;;;;;5058188;28;20449;-74
2023/02/25 05:08:53;;;;;;;5.83;1.80;;;4.10;99.90;;;;;;5058026;28;20439;-75
2023/02/25 05:11:21;;;;;;;5.67;1.87;;;4.00;99.90;;;;;;5058053;28;20843;-75
2023/02/25 05:13:49;;;;;;;7.80;2.03;;;4.00;99.90;;;;;;5075982;28;20433;-74
2023/02/25 05:16:19;;;;;;;7.30;1.93;;;4.00;99.90;;;;;;5057987;28;20453;-74
2023/02/25 05:18:48;;;;;;;6.63;1.83;;;4.00;99.90;;;;;;5076066;28;20902;-74
2023/02/25 05:21:19;;;;;;;7.07;1.93;;;4.00;99.90;;;;;;5075982;28;20465;-74
2023/02/25 05:23:49;;;;;;;7.53;1.60;;;3.90;99.90;;;;;;5057753;28;20483;-74
2023/02/25 05:26:21;;;;;;;4.00;1.27;;;4.00;99.90;;;;;;5057795;28;20483;-74
2023/02/25 05:28:50;;;;;;;6.40;1.33;;;4.00;99.90;;;;;;5075848;28;20460;-74
2023/02/25 05:31:21;;;;;;;5.60;1.50;;;3.90;99.90;;;;;;5075593;28;20465;-74
2023/02/25 05:33:50;;;;;;;4.70;1.40;;;3.90;99.90;;;;;;5075965;28;20420;-74
2023/02/25 05:36:18;;;;;;;3.43;1.30;;;3.90;99.90;;;;;;5075651;28;20441;-74
2023/02/25 05:38:47;;;;;;;9.10;1.87;;;3.90;99.90;;;;;;5075609;28;20444;-74
2023/02/25 05:41:15;;;;;;;5.60;1.50;;;3.90;99.90;;;;;;5057465;28;20575;-74
2023/02/25 05:43:44;;;;;;;4.30;1.47;;;3.80;99.90;;;;;;5057349;28;20990;-74
2023/02/25 05:46:13;;;;;;;5.23;1.70;;;3.80;99.90;;;;;;5075576;28;20520;-74
2023/02/25 05:48:45;;;;;;;3.73;1.50;;;3.80;99.90;;;;;;5075601;28;20918;-74
2023/02/25 05:51:15;;;;;;;6.93;1.93;;;3.80;99.90;;;;;;5075272;28;20552;-74
2023/02/25 05:53:44;;;;;;;4.90;1.77;;;3.70;99.90;;;;;;5075514;28;20914;-74
2023/02/25 05:56:14;;;;;;;5.97;1.63;;;3.80;99.90;;;;;;5075210;28;20926;-74
2023/02/25 05:58:45;;;;;;;5.70;1.40;;;3.70;99.90;;;;;;5075596;28;20775;-74
2023/02/25 06:01:15;;;;;;;8.23;1.80;;;3.70;99.90;;;;;;5057101;28;21057;-74
2023/02/25 06:03:46;;;;;;;5.30;1.80;;;3.60;99.90;;;;;;5074050;28;20473;-74
2023/02/25 06:06:16;;;;;;;10.20;2.20;;;3.60;99.90;;;;;;5075302;28;20418;-74
2023/02/25 06:08:44;;;;;;;5.57;2.17;;;3.60;99.90;;;;;;5075234;28;20856;-74
2023/02/25 06:11:18;;;;;;;8.60;2.10;;;3.60;99.90;;;;;;5074812;28;20460;-74
2023/02/25 06:13:48;;;;;;;5.30;1.73;;;3.60;99.90;;;;;;5075368;28;20938;-74
2023/02/25 06:16:16;;;;;;;5.43;1.57;;;3.50;99.90;;;;;;5074761;28;20437;-74
2023/02/25 06:18:46;;;;;;;5.63;1.57;;;3.50;99.90;;;;;;5074710;28;20448;-74
2023/02/25 06:21:15;;;;;;;6.80;1.53;;;3.50;99.90;;;;;;5056927;28;20464;-74
2023/02/25 06:23:44;;;;;;;6.97;1.90;;;3.50;99.90;;;;;;5074470;28;20487;-74
2023/02/25 06:26:14;;;;;;;4.07;1.60;;;3.50;99.90;;;;;;5074809;28;20524;-73
2023/02/25 06:28:43;;;;;;;8.07;2.03;;;3.50;99.90;;;;;;5075018;28;20901;-74
2023/02/25 06:31:13;;;;;;;5.37;1.73;;;3.50;99.90;;;;;;5057306;28;20465;-74
2023/02/25 06:33:41;;;;;;;8.10;2.60;;;3.50;99.90;;;;;;5075031;28;20456;-74
2023/02/25 06:36:11;;;;;;;4.97;1.53;;;3.50;99.90;;;;;;5074326;28;20433;-74
2023/02/25 06:38:40;;;;;;;5.23;1.43;;;3.50;99.90;;;;;;5056734;28;20449;-74
2023/02/25 06:41:09;;;;;;;11.30;1.53;;;3.50;99.90;;;;;;5056275;28;21017;-73
2023/02/25 06:43:37;;;;;;;4.87;1.40;;;3.40;99.90;;;;;;5056184;28;20479;-74
2023/02/25 06:46:07;;;;;;;6.67;1.53;;;3.30;99.90;;;;;;5056230;28;20456;-74
2023/02/25 06:48:36;;;;;;;7.83;1.90;;;3.20;99.90;;;;;;5056171;28;20829;-74
2023/02/25 06:51:08;;;;;;;3.87;1.10;;;3.20;99.90;;;;;;5073982;28;20437;-74
2023/02/25 06:53:37;;;;;;;4.80;1.67;;;3.10;99.90;;;;;;5056207;28;20472;-74
2023/02/25 06:56:07;;;;;;;7.70;2.00;;;3.10;99.90;;;;;;5055981;28;20505;-73
2023/02/25 06:58:36;;;;;;;4.80;1.50;;;3.10;99.90;;;;;;5056295;28;20512;-74
2023/02/25 07:01:06;;;;;;;4.90;1.60;;;3.00;99.90;;;;;;5055905;28;20442;-74
2023/02/25 07:03:34;;;;;;;5.63;1.80;;;3.00;99.90;;;;;;5056121;28;20531;-74
2023/02/25 07:06:03;;;;;;;6.43;2.03;;;3.10;99.90;;;;;;5074094;28;20452;-74
2023/02/25 07:08:31;;;;;;;6.33;2.20;;;3.00;99.90;;;;;;5073732;28;20477;-74
2023/02/25 07:11:14;;;;;;;5.47;2.57;;;3.10;99.90;;;;;;5055747;28;20506;-74
2023/02/25 07:13:43;;;;;;;7.20;2.90;;;3.00;99.90;;;;;;5055856;28;20431;-74
2023/02/25 07:16:15;;;;;;;5.80;2.27;;;3.10;99.90;;;;;;5055477;28;20488;-74
2023/02/25 07:18:44;;;;;;;4.57;2.00;;;3.00;99.90;;;;;;5055737;28;20441;-75
2023/02/25 07:21:13;;;;;;;7.90;2.67;;;3.10;99.90;;;;;;5073805;28;20507;-75
2023/02/25 07:23:42;;;;;;;5.70;2.23;;;3.10;99.90;;;;;;5055411;28;20566;-75
2023/02/25 07:26:13;;;;;;;6.87;1.87;;;3.10;99.90;;;;;;5073502;28;20435;-75
2023/02/25 07:28:42;;;;;;;6.50;1.90;;;3.10;99.90;;;;;;5073763;28;20418;-75
2023/02/25 07:31:11;;;;;;;7.50;2.00;;;3.20;99.90;;;;;;5055349;28;20528;-75
2023/02/25 07:33:41;;;;;;;5.83;1.97;;;3.10;99.90;;;;;;5055882;28;20444;-75
2023/02/25 07:36:10;;;;;;;10.43;2.40;;;3.10;99.90;;;;;;5073579;28;20489;-75
2023/02/25 07:38:39;;;;;;;6.77;1.60;;;3.10;99.90;;;;;;5055622;28;20456;-75
2023/02/25 07:41:09;;;;;;;6.47;2.00;;;3.10;99.90;;;;;;5073683;28;20953;-75
2023/02/25 07:43:40;;;;;;;5.43;2.07;;;3.00;99.90;;;;;;5073632;28;20483;-75
2023/02/25 07:46:09;;;;;;;5.63;1.90;;;3.00;99.90;;;;;;5074277;28;20462;-75
2023/02/25 07:48:39;;;;;;;8.50;2.53;;;3.10;99.90;;;;;;5073666;28;20439;-75
2023/02/25 07:51:10;;;;;;;10.37;2.70;;;3.10;99.90;;;;;;5055441;28;20441;-75
2023/02/25 07:53:39;;;;;;;8.30;2.17;;;3.10;99.90;;;;;;5055699;28;20452;-74
2023/02/25 07:56:08;;;;;;;8.20;2.10;;;3.20;99.90;;;;;;5055339;28;20445;-75
2023/02/25 07:58:37;;;;;;;7.30;1.63;;;3.20;99.90;;;;;;5073934;28;20456;-75
2023/02/25 08:01:12;;;;;;;6.63;1.80;;;3.20;99.90;;;;;;5076843;28;20503;-75
2023/02/25 08:03:40;;;;;;;5.63;2.27;;;3.30;99.90;;;;;;5055276;28;20476;-75
2023/02/25 08:06:09;;;;;;;5.80;2.03;;;3.30;99.90;;;;;;5055562;28;20450;-74
2023/02/25 08:08:37;;;;;;;4.93;1.50;;;3.30;99.90;;;;;;5055101;28;20445;-75
2023/02/25 08:11:06;;;;;;;6.83;1.60;;;3.30;99.90;;;;;;5055219;28;20539;-75
2023/02/25 08:13:34;;;;;;;6.10;1.90;;;3.30;99.90;;;;;;5055101;28;20942;-75
2023/02/25 08:16:04;;;;;;;6.67;1.80;;;3.40;99.90;;;;;;5073141;28;20432;-74
2023/02/25 08:18:34;;;;;;;5.10;1.80;;;3.40;99.90;;;;;;5073023;28;20950;-75
2023/02/25 08:21:03;;;;;;;7.60;2.27;;;3.50;99.90;;;;;;5055141;28;20449;-75
2023/02/25 08:23:31;;;;;;;5.40;1.43;;;3.60;99.90;;;;;;5054754;28;20479;-75
2023/02/25 08:26:00;;;;;;;6.83;1.40;;;3.70;99.90;;;;;;5073309;28;20933;-75
2023/02/25 08:28:30;;;;;;;5.80;1.60;;;3.90;99.90;;;;;;5076867;28;20440;-74
2023/02/25 08:31:04;;;;;;;8.53;1.70;;;4.00;99.90;;;;;;5058885;28;20952;-75
2023/02/25 08:33:34;;;;;;;7.30;2.43;;;4.20;99.90;;;;;;5058759;28;20457;-75
2023/02/25 08:36:10;;;;;;;5.10;1.50;;;4.20;99.90;;;;;;5076750;28;20429;-75
2023/02/25 08:38:39;;;;;;;6.07;1.90;;;4.30;99.90;;;;;;5077288;28;20511;-75
2023/02/25 08:41:08;;;;;;;5.70;1.60;;;4.40;99.90;;;;;;5076795;28;20473;-75
2023/02/25 08:43:37;;;;;;;5.70;2.10;;;4.40;99.90;;;;;;5076515;28;20835;-75
2023/02/25 08:46:06;;;;;;;6.60;1.40;;;4.50;99.90;;;;;;5058618;28;20908;-75
2023/02/25 08:48:37;;;;;;;9.17;1.53;;;4.50;99.90;;;;;;5058512;28;20445;-75
2023/02/25 08:51:07;;;;;;;6.07;1.60;;;4.40;99.90;;;;;;5058528;28;20491;-74
2023/02/25 08:53:37;;;;;;;7.17;1.60;;;4.40;99.90;;;;;;5076422;28;20421;-75
2023/02/25 08:56:06;;;;;;;4.40;1.50;;;4.40;99.90;;;;;;5076283;28;20964;-75
2023/02/25 08:58:35;;;;;;;8.30;1.60;;;4.40;99.90;;;;;;5076559;28;20473;-75
2023/02/25 09:01:07;;;;;;;4.97;1.53;;;4.40;99.90;;;;;;5058167;28;20459;-75
2023/02/25 09:03:37;;;;;;;5.47;1.40;;;4.30;99.90;;;;;;5058334;28;20499;-75
2023/02/25 09:06:06;;;;;;;5.07;1.40;;;4.30;99.90;;;;;;5058161;28;20482;-75
2023/02/25 09:08:34;;;;;;;4.20;1.30;;;4.30;99.90;;;;;;5076108;28;20433;-75
2023/02/25 09:11:05;;;;;;;5.20;1.50;;;4.30;99.90;;;;;;5058106;28;20907;-74
2023/02/25 09:13:33;;;;;;;3.40;1.10;;;4.30;99.90;;;;;;5076134;28;20417;-75
2023/02/25 09:16:02;;;;;;;5.30;1.47;;;4.30;99.90;;;;;;5058126;28;20449;-75
2023/02/25 09:18:30;;;;;;;3.63;1.23;;;4.30;99.90;;;;;;5076229;28;20465;-75
2023/02/25 09:21:00;;;;;;;5.30;1.50;;;4.30;99.90;;;;;;5075735;28;20432;-75
2023/02/25 09:23:28;;;;;;;3.23;1.17;;;4.20;99.90;;;;;;5075859;28;20453;-75
2023/02/25 09:25:56;;;;;;;6.67;1.40;;;4.20;99.90;;;;;;5057858;28;20591;-75
2023/02/25 09:28:24;;;;;;;4.70;1.50;;;4.20;99.90;;;;;;5057761;28;20514;-75
2023/02/25 09:30:54;;;;;;;3.73;1.20;;;4.30;99.90;;;;;;5076370;28;20447;-74
2023/02/25 09:33:23;;;;;;;3.37;0.90;;;4.40;99.90;;;;;;5061322;28;20448;-74
2023/02/25 09:35:57;;;;;;;3.40;0.87;;;4.40;99.90;;;;;;5064761;28;20441;-74
2023/02/25 09:38:26;;;;;;;5.00;1.23;;;4.40;99.90;;;;;;5076222;28;20427;-74
2023/02/25 09:40:54;;;;;;;3.07;0.80;;;4.40;99.90;;;;;;5057866;28;20467;-74
2023/02/25 09:43:27;;;;;;;3.60;1.10;;;4.40;99.90;;;;;;5057838;28;20445;-74
2023/02/25 09:46:02;;;;;;;6.07;1.23;;;4.30;99.90;;;;;;5057523;28;20470;-74
2023/02/25 09:48:34;;;;;;;3.97;1.27;;;4.20;99.90;;;;;;5075816;28;20421;-75
2023/02/25 09:51:12;;;;;;;4.53;1.13;;;4.20;99.90;;;;;;5057648;28;20449;-74
2023/02/25 09:53:49;;;;;;;3.90;1.20;;;4.10;99.90;;;;;;5057390;28;20436;-74
2023/02/25 09:56:22;;;;;;;4.57;1.30;;;4.00;99.90;;;;;;5076230;28;20418;-75
2023/02/25 09:58:55;;;;;;;3.90;1.00;;;4.00;99.90;;;;;;5058210;28;20451;-74
2023/02/25 10:01:33;;;;;;;4.27;1.10;;;4.00;99.90;;;;;;5075951;28;20547;-74
2023/02/25 10:04:08;;;;;;;5.30;0.97;;;4.00;99.90;;;;;;5057378;28;20543;-74
2023/02/25 10:06:38;;;;;;;5.27;1.20;;;4.00;99.90;;;;;;5075450;28;20525;-75
2023/02/25 10:09:21;;;;;;;7.20;1.57;;;4.00;99.90;;;;;;5075039;28;20417;-75
2023/02/25 10:11:53;;;;;;;4.93;1.00;;;4.00;99.90;;;;;;5057050;28;20913;-74
2023/02/25 10:14:37;;;;;;;8.40;1.10;;;4.00;99.90;;;;;;5056939;28;20452;-75
2023/02/25 10:17:12;;;;;;;4.70;1.10;;;4.10;99.90;;;;;;5075176;28;20413;-75
2023/02/25 10:19:58;;;;;;;3.83;0.80;;;4.10;99.90;;;;;;5056896;28;20447;-75
2023/02/25 10:22:39;;;;;;;4.40;1.30;;;4.20;99.90;;;;;;5056769;28;20535;-75
2023/02/25 10:25:14;;;;;;;2.90;1.00;;;4.20;99.90;;;;;;5056884;28;20475;-75
2023/02/25 10:27:48;;;;;;;5.47;1.40;;;4.30;99.90;;;;;;5056657;28;20459;-74
2023/02/25 10:30:20;;;;;;;4.20;1.17;;;4.30;99.90;;;;;;5074488;28;20425;-75
2023/02/25 10:32:48;;;;;;;8.83;1.60;;;4.30;99.90;;;;;;5074673;28;20484;-75
2023/02/25 10:35:23;;;;;;;5.40;1.70;;;4.30;99.90;;;;;;5074386;28;20495;-74
2023/02/25 10:37:52;;;;;;;4.00;1.20;;;4.30;99.90;;;;;;5074344;28;20520;-75
2023/02/25 10:40:26;;;;;;;4.30;1.07;;;4.30;99.90;;;;;;5074295;28;20524;-75
2023/02/25 10:42:59;;;;;;;6.30;2.90;;;4.30;99.90;;;;;;5056569;28;20465;-75
2023/02/25 10:45:29;;;;;;;4.73;1.37;;;4.30;99.90;;;;;;5056268;28;20465;-75
2023/02/25 10:48:05;;;;;;;4.43;1.23;;;4.30;99.90;;;;;;5074218;28;20425;-75
2023/02/25 10:50:33;;;;;;;4.67;1.40;;;4.30;99.90;;;;;;5056066;28;20907;-75
2023/02/25 10:53:15;;;;;;;4.17;1.10;;;4.40;99.90;;;;;;5074387;28;20552;-75
2023/02/25 10:55:53;;;;;;;3.10;0.90;;;4.40;99.90;;;;;;5074312;28;20961;-75
2023/02/25 10:58:30;;;;;;;3.30;1.00;;;4.40;99.90;;;;;;5056351;28;20536;-75
2023/02/25 11:01:03;;;;;;;3.37;1.10;;;4.40;99.90;;;;;;5074402;28;20436;-75
2023/02/25 11:03:33;;;;;;;7.47;1.00;;;4.40;99.90;;;;;;5055953;28;20441;-75
2023/02/25 11:06:17;;;;;;;3.50;1.33;;;4.40;99.90;;;;;;5074063;28;20453;-75
2023/02/25 11:08:46;;;;;;;4.00;1.73;;;4.40;99.90;;;;;;5073827;28;20899;-75
2023/02/25 11:11:18;;;;;;;6.43;1.80;;;4.40;99.90;;;;;;5074253;28;20461;-75
2023/02/25 11:13:55;;;;;;;6.20;1.60;;;4.40;99.90;;;;;;5055834;28;20457;-75
2023/02/25 11:16:23;;;;;;;2.93;0.83;;;4.50;99.90;;;;;;5073720;28;20417;-75
2023/02/25 11:18:54;;;;;;;3.07;1.13;;;4.50;99.90;;;;;;5055702;28;21029;-75
2023/02/25 11:21:34;;;;;;;4.10;1.13;;;4.50;99.90;;;;;;5073645;28;20453;-75
2023/02/25 11:24:08;;;;;;;5.60;1.97;;;4.50;99.90;;;;;;5055661;28;20797;-75
2023/02/25 11:26:42;;;;;;;4.43;1.60;;;4.50;99.90;;;;;;5055583;28;20465;-75
2023/02/25 11:29:14;;;;;;;3.70;1.30;;;4.50;99.90;;;;;;5073550;28;20903;-75
2023/02/25 11:31:43;;;;;;;5.50;1.47;;;4.50;99.90;;;;;;5073428;28;20457;-74
2023/02/25 11:34:18;;;;;;;4.30;1.17;;;4.50;99.90;;;;;;5073457;28;20516;-75
2023/02/25 11:36:46;;;;;;;4.90;1.30;;;4.50;99.90;;;;;;5055494;28;20437;-75
2023/02/25 11:39:20;;;;;;;5.97;1.40;;;4.60;99.90;;;;;;5055510;28;20448;-75
2023/02/25 11:41:51;;;;;;;3.57;1.20;;;4.60;99.90;;;;;;5055365;28;20472;-75
2023/02/25 11:44:31;;;;;;;3.77;1.30;;;4.70;99.90;;;;;;5055424;28;20524;-75
2023/02/25 11:47:04;;;;;;;4.40;1.57;;;4.70;99.90;;;;;;5073489;28;20463;-75
2023/02/25 11:50:06;;;;;;;4.80;1.33;;;4.70;99.90;;;;;;5073599;28;20426;-75
2023/02/25 11:52:41;;;;;;;3.43;0.93;;;4.80;99.90;;;;;;5073512;28;20583;-75
2023/02/25 11:55:20;;;;;;;3.77;1.30;;;4.80;99.90;;;;;;5055290;28;20492;-75
2023/02/25 11:58:02;;;;;;;3.50;1.40;;;4.80;99.90;;;;;;5073274;28;20421;-74
2023/02/25 12:00:38;;;;;;;3.37;1.33;;;4.90;99.90;;;;;;5055208;28;20433;-75
2023/02/25 12:03:23;;;;;;;5.67;1.30;;;5.00;99.90;;;;;;5058394;28;20468;-75
2023/02/25 12:06:06;;;;;;;3.33;1.13;;;5.00;99.90;;;;;;5059288;28;20468;-75
2023/02/25 12:08:43;;;;;;;3.83;1.00;;;5.00;99.90;;;;;;5059397;28;20445;-75
2023/02/25 12:12:01;;;;;;;5.67;1.40;;;5.00;99.90;;;;;;5077317;28;20436;-75
2023/02/25 12:15:03;;;;;;;3.93;1.50;;;5.10;99.90;;;;;;5059306;28;20494;-75
2023/02/25 12:18:07;;;;;;;4.23;1.40;;;5.10;99.90;;;;;;5077442;28;20430;-75
2023/02/25 12:21:18;;;;;;;6.50;1.30;;;5.00;99.90;;;;;;5071334;28;20449;-75
2023/02/25 12:24:27;;;;;;;3.53;1.30;;;5.00;99.90;;;;;;5040741;28;20461;-75
2023/02/25 12:27:17;;;;;;;5.47;1.57;;;5.00;99.90;;;;;;5072705;28;20473;-75
2023/02/25 12:30:07;;;;;;;5.83;1.50;;;5.10;99.90;;;;;;5058984;28;20445;-75
2023/02/25 12:32:51;;;;;;;4.23;1.53;;;5.10;99.90;;;;;;5077035;28;20457;-76
2023/02/25 12:35:37;;;;;;;4.30;1.20;;;5.20;99.90;;;;;;5058875;28;20865;-75
2023/02/25 12:38:51;;;;;;;5.17;1.63;;;5.20;99.90;;;;;;5076766;28;20452;-75
2023/02/25 12:41:33;;;;;;;6.07;1.37;;;5.30;99.90;;;;;;5076661;28;20464;-75
2023/02/25 12:44:19;;;;;;;3.70;1.60;;;5.30;99.90;;;;;;5058954;28;20795;-75
2023/02/25 12:47:16;;;;;;;3.40;1.13;;;5.30;99.90;;;;;;5076630;28;20981;-75
2023/02/25 12:50:07;;;;;;;6.87;1.40;;;5.20;99.90;;;;;;5077093;28;20949;-75
2023/02/25 12:52:55;;;;;;;7.67;1.57;;;5.20;99.90;;;;;;5076561;28;20527;-75
2023/02/25 12:55:57;;;;;;;4.70;1.87;;;5.30;99.90;;;;;;5058748;28;20437;-75
2023/02/25 12:59:05;;;;;;;4.97;1.90;;;5.30;99.90;;;;;;5044259;28;20483;-75
2023/02/25 13:02:02;;;;;;;6.63;1.60;;;5.30;99.90;;;;;;5061924;28;20475;-75
2023/02/25 13:04:48;;;;;;;4.00;1.57;;;5.30;99.90;;;;;;5060991;28;20465;-75
2023/02/25 13:07:50;;;;;;;4.70;1.57;;;5.30;99.90;;;;;;5079467;28;20552;-75
2023/02/25 13:10:50;;;;;;;5.30;1.70;;;5.30;99.90;;;;;;5054480;28;20448;-75
2023/02/25 13:13:41;;;;;;;5.20;1.97;;;5.30;99.90;;;;;;5054584;28;20457;-76
2023/02/25 13:16:25;;;;;;;7.23;1.60;;;5.40;99.90;;;;;;5076833;28;20456;-75
2023/02/25 13:19:20;;;;;;;4.93;1.67;;;5.30;99.90;;;;;;5058172;28;20438;-74
2023/02/25 13:21:59;;;;;;;6.10;1.93;;;5.30;99.90;;;;;;5073711;28;20832;-75
2023/02/25 13:24:47;;;;;;;5.63;1.97;;;5.30;99.90;;;;;;5075890;28;20455;-74
2023/02/25 13:27:48;;;;;;;6.17;1.93;;;5.30;99.90;;;;;;5057782;28;20994;-75
2023/02/25 13:30:31;;;;;;;5.83;1.30;;;5.40;99.90;;;;;;5076037;28;20432;-75